createdAt,value
2018-12-22T00:01:38.407Z,63.70
2018-12-22T00:04:15.668Z,70.80
2018-12-22T00:06:53.330Z,82.20
2018-12-22T00:09:29.601Z,68.07
2018-12-22T00:12:06.018Z,78.73
2018-12-22T00:14:44.610Z,72.17
2018-12-22T00:17:20.514Z,62.00
2018-12-22T00:19:56.651Z,66.83
2018-12-22T00:22:32.653Z,63.43
2018-12-22T00:25:09.111Z,62.20
2018-12-22T00:27:48.923Z,50.57
2018-12-22T00:30:27.127Z,57.60
2018-12-22T00:33:03.046Z,72.87
2018-12-22T00:35:39.060Z,70.17
2018-12-22T00:38:19.806Z,72.40
2018-12-22T00:40:56.254Z,72.13
2018-12-22T00:43:32.543Z,75.47
2018-12-22T00:46:08.889Z,63.37
2018-12-22T00:48:45.580Z,68.97
2018-12-22T00:51:21.665Z,73.60
2018-12-22T00:53:58.012Z,64.80
2018-12-22T00:56:34.105Z,72.23
2018-12-22T00:59:10.173Z,74.53
2018-12-22T01:01:46.527Z,75.63
2018-12-22T01:04:22.871Z,86.13
2018-12-22T01:14:02.436Z,57.40
2018-12-22T01:16:38.644Z,65.63
2018-12-22T01:19:14.989Z,63.63
2018-12-22T01:21:51.845Z,56.90
2018-12-22T01:24:29.997Z,54.40
2018-12-22T01:28:29.613Z,53.67
2018-12-22T01:31:06.986Z,62.33
2018-12-22T01:33:44.333Z,64.27
2018-12-22T01:36:20.842Z,68.93
2018-12-22T01:38:57.651Z,69.43
2018-12-22T01:41:34.549Z,68.83
2018-12-22T01:44:11.672Z,64.90
2018-12-22T01:46:48.436Z,68.20
2018-12-22T01:49:26.505Z,65.37
2018-12-22T01:52:03.958Z,64.40
2018-12-22T01:54:40.450Z,66.97
2018-12-22T01:57:16.580Z,61.10
2018-12-22T01:59:52.849Z,58.83
2018-12-22T02:02:29.459Z,60.93
2018-12-22T02:05:07.190Z,54.90
2018-12-22T02:07:43.488Z,50.10
2018-12-22T02:10:19.688Z,52.20
2018-12-22T02:12:56.274Z,60.03
2018-12-22T02:15:33.036Z,63.20
2018-12-22T02:18:10.847Z,54.93
2018-12-22T02:20:47.282Z,60.87
2018-12-22T02:23:24.046Z,56.90
2018-12-22T02:26:00.521Z,49.43
2018-12-22T02:28:37.041Z,50.73
2018-12-22T02:31:13.666Z,46.60
2018-12-22T02:33:50.070Z,41.80
2018-12-22T02:36:26.944Z,42.67
2018-12-22T02:39:03.475Z,46.90
2018-12-22T02:41:39.934Z,45.43
2018-12-22T02:44:16.671Z,51.07
2018-12-22T02:46:53.263Z,49.33
2018-12-22T02:49:29.593Z,47.77
2018-12-22T02:52:05.946Z,43.60
2018-12-22T02:54:42.316Z,41.97
2018-12-22T02:57:19.415Z,42.00
2018-12-22T02:59:55.847Z,42.23
2018-12-22T03:02:32.138Z,42.57
2018-12-22T03:05:08.653Z,36.03
2018-12-22T03:07:45.102Z,37.40
2018-12-22T03:10:21.893Z,38.07
2018-12-22T03:12:58.392Z,40.33
2018-12-22T03:15:35.036Z,40.83
2018-12-22T03:18:11.982Z,40.23
2018-12-22T03:20:48.668Z,45.93
2018-12-22T03:23:25.181Z,54.00
2018-12-22T03:26:01.543Z,53.23
2018-12-22T03:28:37.783Z,53.40
2018-12-22T03:31:14.489Z,49.63
2018-12-22T03:33:50.700Z,53.37
2018-12-22T03:36:27.212Z,51.57
2018-12-22T03:39:03.875Z,49.37
2018-12-22T03:41:40.237Z,50.00
2018-12-22T03:44:16.546Z,47.80
2018-12-22T03:46:53.298Z,49.00
2018-12-22T03:49:29.847Z,55.03
2018-12-22T03:52:06.561Z,54.20
2018-12-22T03:54:43.153Z,51.27
2018-12-22T03:57:20.027Z,55.50
2018-12-22T03:59:56.825Z,57.07
2018-12-22T04:02:33.958Z,50.53
2018-12-22T04:05:21.868Z,46.43
2018-12-22T04:07:59.687Z,42.67
2018-12-22T04:10:36.262Z,43.23
2018-12-22T04:13:12.675Z,36.90
2018-12-22T04:15:52.764Z,35.37
2018-12-22T04:18:29.036Z,38.03
2018-12-22T04:21:05.311Z,38.17
2018-12-22T04:23:41.759Z,37.80
2018-12-22T04:26:17.792Z,39.13
2018-12-22T04:28:54.059Z,37.60
2018-12-22T04:31:30.493Z,43.60
2018-12-22T04:34:06.743Z,44.03
2018-12-22T04:36:43.018Z,41.47
2018-12-22T04:39:19.432Z,43.43
2018-12-22T04:41:55.435Z,44.17
2018-12-22T04:44:31.907Z,49.70
2018-12-22T04:47:07.982Z,45.33
2018-12-22T04:49:44.348Z,45.33
2018-12-22T04:52:20.582Z,37.53
2018-12-22T04:54:56.942Z,33.73
2018-12-22T04:57:33.061Z,34.50
2018-12-22T05:00:11.148Z,30.37
2018-12-22T05:02:47.716Z,31.67
2018-12-22T05:05:24.729Z,25.60
2018-12-22T05:08:01.217Z,33.20
2018-12-22T05:10:38.788Z,34.23
2018-12-22T05:13:15.817Z,31.43
2018-12-22T05:15:52.855Z,26.50
2018-12-22T05:18:29.823Z,33.80
2018-12-22T05:21:06.353Z,35.20
2018-12-22T05:23:42.804Z,41.60
2018-12-22T05:26:20.229Z,76.53
2018-12-22T05:28:56.764Z,51.97
2018-12-22T05:31:35.291Z,49.43
2018-12-22T05:34:11.613Z,59.50
2018-12-22T05:36:48.132Z,43.47
2018-12-22T05:39:24.294Z,47.97
2018-12-22T05:42:00.675Z,38.40
2018-12-22T05:44:36.999Z,43.70
2018-12-22T05:47:13.409Z,40.10
2018-12-22T05:49:49.840Z,104.37
2018-12-22T05:52:29.655Z,50.40
2018-12-22T05:58:29.637Z,49.93
2018-12-22T06:01:06.894Z,50.33
2018-12-22T06:03:43.073Z,57.83
2018-12-22T06:06:19.865Z,53.87
2018-12-22T06:08:56.083Z,56.93
2018-12-22T06:11:32.398Z,51.33
2018-12-22T06:14:08.650Z,64.17
2018-12-22T06:16:44.843Z,57.70
2018-12-22T06:19:20.950Z,54.70
2018-12-22T06:21:56.971Z,66.67
2018-12-22T06:24:33.737Z,73.77
2018-12-22T06:27:09.671Z,35.47
2018-12-22T06:29:45.821Z,42.90
2018-12-22T06:32:21.794Z,58.00
2018-12-22T06:34:58.232Z,55.63
2018-12-22T06:37:34.259Z,63.90
2018-12-22T06:40:10.344Z,98.73
2018-12-22T06:42:48.226Z,53.23
2018-12-22T06:45:24.938Z,41.80
2018-12-22T06:48:00.930Z,42.57
2018-12-22T06:50:37.173Z,39.83
2018-12-22T06:53:13.050Z,45.63
2018-12-22T06:55:49.201Z,53.50
2018-12-22T06:58:25.169Z,50.30
2018-12-22T07:01:01.926Z,41.50
2018-12-22T07:03:37.884Z,49.40
2018-12-22T07:06:14.207Z,97.60
2018-12-22T07:08:50.529Z,70.57
2018-12-22T07:11:27.129Z,43.77
2018-12-22T07:14:05.605Z,52.60
2018-12-22T07:16:42.074Z,67.53
2018-12-22T07:19:18.325Z,69.13
2018-12-22T07:21:54.354Z,83.57
2018-12-22T07:24:30.415Z,47.13
2018-12-22T07:27:06.934Z,69.30
2018-12-22T07:29:45.994Z,74.30
2018-12-22T07:32:22.298Z,66.50
2018-12-22T07:34:58.317Z,79.50
2018-12-22T07:37:34.426Z,82.13
2018-12-22T07:40:10.414Z,83.13
2018-12-22T07:42:46.598Z,92.17
2018-12-22T07:45:22.861Z,84.03
2018-12-22T07:47:59.382Z,81.23
2018-12-22T07:50:35.678Z,89.43
2018-12-22T07:53:11.901Z,97.60
2018-12-22T07:55:53.946Z,83.97
2018-12-22T07:58:30.365Z,62.13
2018-12-22T08:01:06.397Z,51.77
2018-12-22T08:03:42.451Z,56.00
2018-12-22T08:06:18.419Z,48.43
2018-12-22T08:08:55.225Z,45.57
2018-12-22T08:11:32.031Z,44.13
2018-12-22T08:14:07.897Z,63.50
2018-12-22T08:16:43.911Z,119.20
2018-12-22T08:19:19.982Z,78.80
2018-12-22T08:21:56.048Z,65.30
2018-12-22T08:24:32.131Z,52.60
2018-12-22T08:27:08.130Z,66.47
2018-12-22T08:32:23.154Z,54.17
2018-12-22T08:35:01.549Z,43.03
2018-12-22T08:37:46.200Z,42.67
2018-12-22T08:40:29.953Z,86.93
2018-12-22T08:43:11.880Z,57.23
2018-12-22T08:45:54.708Z,55.13
2018-12-22T08:48:35.941Z,77.83
2018-12-22T08:51:18.725Z,81.80
2018-12-22T08:54:00.732Z,89.20
2018-12-22T08:56:43.106Z,72.87
2018-12-22T08:59:37.082Z,54.63
2018-12-22T09:02:22.808Z,47.20
2018-12-22T09:05:06.366Z,43.30
2018-12-22T09:07:48.015Z,46.57
2018-12-22T09:10:29.776Z,38.73
2018-12-22T09:13:20.656Z,47.17
2018-12-22T09:15:58.594Z,72.20
2018-12-22T09:18:40.375Z,73.57
2018-12-22T09:21:22.914Z,92.17
2018-12-22T09:24:05.647Z,115.33
2018-12-22T09:26:48.868Z,103.27
2018-12-22T09:29:31.280Z,89.07
2018-12-22T09:32:12.667Z,106.47
2018-12-22T09:34:54.404Z,90.40
2018-12-22T09:37:36.116Z,79.83
2018-12-22T09:40:20.453Z,71.03
2018-12-22T09:43:02.615Z,81.53
2018-12-22T09:46:09.170Z,87.03
2018-12-22T09:49:03.152Z,86.97
2018-12-22T09:51:45.103Z,82.03
2018-12-22T09:54:27.215Z,94.37
2018-12-22T09:57:09.254Z,94.13
2018-12-22T09:59:50.852Z,86.63
2018-12-22T10:02:32.455Z,82.53
2018-12-22T10:05:14.349Z,110.27
2018-12-22T10:07:56.212Z,88.77
2018-12-22T10:10:37.815Z,79.23
2018-12-22T10:13:19.491Z,72.03
2018-12-22T10:16:01.036Z,85.33
2018-12-22T10:18:42.879Z,88.53
2018-12-22T10:21:24.554Z,91.83
2018-12-22T10:24:06.419Z,106.50
2018-12-22T10:26:48.137Z,92.73
2018-12-22T10:30:54.565Z,76.50
2018-12-22T10:33:36.381Z,56.20
2018-12-22T10:36:18.154Z,48.07
2018-12-22T10:38:59.695Z,44.73
2018-12-22T10:41:41.613Z,52.83
2018-12-22T10:44:23.344Z,60.47
2018-12-22T10:47:05.042Z,60.57
2018-12-22T10:49:46.676Z,51.63
2018-12-22T10:52:28.377Z,47.80
2018-12-22T10:55:13.111Z,49.33
2018-12-22T10:57:55.029Z,53.37
2018-12-22T11:00:36.335Z,56.77
2018-12-22T11:03:18.131Z,72.37
2018-12-22T11:05:59.801Z,75.37
2018-12-22T11:08:41.849Z,77.97
2018-12-22T11:11:23.410Z,74.70
2018-12-22T11:14:05.273Z,114.47
2018-12-22T11:16:46.723Z,103.10
2018-12-22T11:19:28.273Z,109.27
2018-12-22T11:22:09.864Z,83.77
2018-12-22T11:24:51.754Z,138.63
2018-12-22T11:27:33.408Z,107.60
2018-12-22T11:30:36.069Z,118.77
2018-12-22T11:33:25.072Z,105.77
2018-12-22T11:36:06.869Z,92.17
2018-12-22T11:38:48.381Z,86.07
2018-12-22T11:41:36.259Z,107.90
2018-12-22T11:44:23.096Z,102.63
2018-12-22T11:47:26.838Z,110.33
2018-12-22T11:50:29.795Z,104.60
2018-12-22T11:53:11.431Z,92.07
2018-12-22T11:55:53.062Z,91.57
2018-12-22T11:58:34.665Z,91.40
2018-12-22T12:01:16.527Z,106.90
2018-12-22T12:03:58.162Z,100.80
2018-12-22T12:06:39.797Z,126.20
2018-12-22T12:09:21.872Z,173.33
2018-12-22T12:12:03.453Z,136.03
2018-12-22T12:14:45.139Z,157.03
2018-12-22T12:17:37.719Z,165.40
2018-12-22T12:20:19.443Z,172.07
2018-12-22T12:23:01.120Z,166.77
2018-12-22T12:25:42.775Z,135.97
2018-12-22T12:28:24.253Z,148.63
2018-12-22T12:31:06.131Z,146.60
2018-12-22T12:33:47.813Z,163.77
2018-12-22T12:36:29.654Z,177.27
2018-12-22T12:39:14.018Z,97.20
2018-12-22T12:41:55.927Z,101.07
2018-12-22T12:44:42.251Z,110.30
2018-12-22T12:47:24.470Z,106.17
2018-12-22T12:50:07.646Z,99.97
2018-12-22T12:52:48.869Z,86.17
2018-12-22T12:55:30.615Z,81.30
2018-12-22T12:58:12.336Z,54.20
2018-12-22T13:00:53.909Z,66.67
2018-12-22T13:03:35.735Z,69.20
2018-12-22T13:06:18.803Z,68.00
2018-12-22T13:09:07.102Z,56.57
2018-12-22T13:11:50.242Z,60.57
2018-12-22T13:14:31.790Z,63.07
2018-12-22T13:17:13.483Z,60.60
2018-12-22T13:19:55.347Z,77.37
2018-12-22T13:22:37.018Z,106.57
2018-12-22T13:25:18.850Z,96.30
2018-12-22T13:28:00.690Z,105.83
2018-12-22T13:30:42.376Z,104.97
2018-12-22T13:33:24.568Z,80.13
2018-12-22T13:36:06.115Z,85.57
2018-12-22T13:38:53.069Z,80.60
2018-12-22T13:41:36.856Z,88.67
2018-12-22T13:44:18.473Z,93.33
2018-12-22T13:46:59.999Z,96.27
2018-12-22T13:49:35.881Z,78.27
2018-12-22T13:52:12.738Z,152.87
2018-12-22T13:54:49.678Z,142.60
2018-12-22T13:57:26.487Z,125.73
2018-12-22T14:00:03.806Z,132.13
2018-12-22T14:02:40.999Z,121.67
2018-12-22T14:05:20.305Z,83.47
2018-12-22T14:07:56.493Z,119.30
2018-12-22T14:10:33.422Z,104.17
2018-12-22T14:13:10.242Z,236.13
2018-12-22T14:15:52.832Z,117.97
2018-12-22T14:18:41.664Z,83.50
2018-12-22T14:21:18.124Z,73.30
2018-12-22T14:24:17.362Z,112.43
2018-12-22T14:26:53.498Z,80.07
2018-12-22T14:29:30.671Z,96.50
2018-12-22T14:32:06.996Z,91.57
2018-12-22T14:34:47.625Z,80.70
2018-12-22T14:37:24.764Z,96.87
2018-12-22T14:40:01.614Z,101.53
2018-12-22T14:42:38.485Z,94.23
2018-12-22T14:45:15.323Z,98.10
2018-12-22T14:47:51.971Z,112.37
2018-12-22T14:50:28.992Z,113.40
2018-12-22T14:53:06.478Z,109.70
2018-12-22T14:55:42.646Z,116.67
2018-12-22T14:58:23.415Z,125.10
2018-12-22T15:01:00.860Z,113.30
2018-12-22T15:03:37.298Z,120.80
2018-12-22T15:06:14.169Z,118.93
2018-12-22T15:08:50.851Z,95.87
2018-12-22T15:11:27.560Z,129.43
2018-12-22T15:14:04.440Z,133.00
2018-12-22T15:16:41.679Z,127.67
2018-12-22T15:19:18.226Z,115.10
2018-12-22T15:21:58.502Z,181.13
2018-12-22T15:24:35.133Z,255.70
2018-12-22T15:27:12.028Z,150.80
2018-12-22T15:29:48.603Z,145.40
2018-12-22T15:32:25.643Z,143.03
2018-12-22T15:35:02.541Z,166.60
2018-12-22T15:37:39.381Z,312.97
2018-12-22T15:40:16.029Z,161.87
2018-12-22T15:42:52.972Z,170.23
2018-12-22T15:45:29.764Z,202.10
2018-12-22T15:48:06.722Z,188.43
2018-12-22T15:50:44.166Z,184.57
2018-12-22T15:53:21.589Z,236.70
2018-12-22T15:55:59.394Z,236.83
2018-12-22T15:58:36.383Z,219.60
2018-12-22T16:01:13.577Z,211.60
2018-12-22T16:03:50.435Z,138.13
2018-12-22T16:06:26.870Z,107.80
2018-12-22T16:09:05.370Z,99.70
2018-12-22T16:11:42.390Z,92.43
2018-12-22T16:14:19.178Z,109.57
2018-12-22T16:16:56.054Z,110.23
2018-12-22T16:19:34.610Z,160.80
2018-12-22T16:22:10.675Z,166.03
2018-12-22T16:24:47.646Z,158.53
2018-12-22T16:27:28.686Z,150.30
2018-12-22T16:30:12.595Z,136.67
2018-12-22T16:32:49.412Z,134.30
2018-12-22T16:35:26.427Z,137.20
2018-12-22T16:38:03.421Z,132.30
2018-12-22T16:40:39.965Z,134.57
2018-12-22T16:43:17.712Z,136.60
2018-12-22T16:45:54.355Z,160.13
2018-12-22T16:48:32.188Z,163.03
2018-12-22T16:51:10.807Z,159.93
2018-12-22T16:53:47.613Z,156.73
2018-12-22T16:56:25.003Z,148.93
2018-12-22T16:59:02.058Z,123.83
2018-12-22T17:01:57.978Z,131.83
2018-12-22T17:04:34.521Z,168.37
2018-12-22T17:07:11.526Z,207.03
2018-12-22T17:09:48.374Z,208.37
2018-12-22T17:12:24.687Z,199.33
2018-12-22T17:15:01.592Z,227.47
2018-12-22T17:17:38.547Z,210.57
2018-12-22T17:20:15.277Z,243.70
2018-12-22T17:23:05.031Z,206.27
2018-12-22T17:25:47.575Z,195.73
2018-12-22T17:28:28.180Z,181.37
2018-12-22T17:31:04.807Z,186.27
2018-12-22T17:33:41.440Z,210.27
2018-12-22T17:36:18.716Z,300.17
2018-12-22T17:38:55.119Z,395.13
2018-12-22T17:41:31.794Z,444.30
2018-12-22T17:44:08.754Z,413.87
2018-12-22T17:46:45.475Z,379.23
2018-12-22T17:49:21.909Z,321.50
2018-12-22T17:51:59.285Z,299.80
2018-12-22T17:54:36.821Z,310.00
2018-12-22T17:57:14.398Z,297.27
2018-12-22T17:59:52.843Z,246.50
2018-12-22T18:02:31.531Z,235.40
2018-12-22T18:05:08.998Z,185.90
2018-12-22T18:07:46.494Z,206.40
2018-12-22T18:10:23.996Z,230.30
2018-12-22T18:13:00.219Z,234.40
2018-12-22T18:15:38.684Z,300.97
2018-12-22T18:18:16.904Z,296.37
2018-12-22T18:20:53.954Z,366.50
2018-12-22T18:23:30.950Z,345.73
2018-12-22T18:26:07.815Z,344.00
2018-12-22T18:28:44.548Z,299.23
2018-12-22T18:31:20.652Z,326.27
2018-12-22T18:33:57.434Z,303.10
2018-12-22T18:36:34.261Z,300.60
2018-12-22T18:39:11.024Z,305.13
2018-12-22T18:41:47.806Z,290.97
2018-12-22T18:44:24.702Z,273.63
2018-12-22T18:47:01.602Z,279.67
2018-12-22T18:49:37.968Z,281.40
2018-12-22T18:52:14.781Z,354.93
2018-12-22T18:54:51.478Z,343.57
2018-12-22T18:57:28.297Z,320.40
2018-12-22T19:00:09.944Z,329.23
2018-12-22T19:02:46.090Z,331.97
2018-12-22T19:05:23.422Z,350.53
2018-12-22T19:08:04.722Z,372.43
2018-12-22T19:10:46.674Z,363.77
2018-12-22T19:13:22.925Z,405.87
2018-12-22T19:15:59.639Z,335.47
2018-12-22T19:18:36.673Z,274.30
2018-12-22T19:21:13.309Z,203.37
2018-12-22T19:23:50.210Z,188.17
2018-12-22T19:26:28.444Z,255.20
2018-12-22T19:29:05.545Z,193.63
2018-12-22T19:31:42.315Z,176.13
2018-12-22T19:34:18.958Z,160.80
2018-12-22T19:36:55.783Z,194.63
2018-12-22T19:39:32.402Z,226.93
2018-12-22T19:42:09.225Z,200.00
2018-12-22T19:44:45.973Z,214.70
2018-12-22T19:47:22.836Z,160.07
2018-12-22T19:49:58.977Z,173.73
2018-12-22T19:52:35.848Z,221.00
2018-12-22T19:56:37.007Z,174.27
2018-12-22T19:59:13.953Z,191.73
2018-12-22T20:01:50.853Z,212.67
2018-12-22T20:04:27.594Z,267.23
2018-12-22T20:07:04.721Z,248.13
2018-12-22T20:09:41.551Z,251.40
2018-12-22T20:12:18.368Z,305.30
2018-12-22T20:14:55.232Z,274.43
2018-12-22T20:17:31.336Z,285.90
2018-12-22T20:20:08.993Z,259.27
2018-12-22T20:22:45.091Z,301.60
2018-12-22T20:25:22.873Z,263.73
2018-12-22T20:27:59.668Z,313.03
2018-12-22T20:30:36.553Z,208.43
2018-12-22T20:33:14.645Z,167.00
2018-12-22T20:35:53.057Z,137.73
2018-12-22T20:38:29.934Z,123.47
2018-12-22T20:41:08.048Z,125.23
2018-12-22T20:43:46.565Z,138.93
2018-12-22T20:46:25.166Z,134.90
2018-12-22T20:49:04.220Z,116.30
2018-12-22T20:51:43.759Z,118.20
2018-12-22T20:54:23.569Z,116.87
2018-12-22T20:57:03.039Z,145.60
2018-12-22T21:01:12.577Z,125.90
2018-12-22T21:03:57.796Z,120.20
2018-12-22T21:06:44.215Z,138.63
2018-12-22T21:09:30.197Z,156.47
2018-12-22T21:12:14.778Z,180.57
2018-12-22T21:14:59.417Z,141.23
2018-12-22T21:17:46.606Z,134.60
2018-12-22T21:20:31.046Z,131.10
2018-12-22T21:23:16.186Z,129.97
2018-12-22T21:26:01.920Z,131.63
2018-12-22T21:28:47.306Z,142.73
2018-12-22T21:31:31.303Z,136.87
2018-12-22T21:34:16.195Z,183.70
2018-12-22T21:37:03.255Z,214.80
2018-12-22T21:39:47.756Z,209.10
2018-12-22T21:42:30.126Z,263.03
2018-12-22T21:45:12.937Z,249.70
2018-12-22T21:47:56.990Z,233.43
2018-12-22T21:50:40.178Z,211.23
2018-12-22T21:53:22.688Z,198.00
2018-12-22T21:56:04.917Z,189.83
2018-12-22T21:58:46.612Z,186.77
2018-12-22T22:01:28.392Z,145.47
2018-12-22T22:04:09.981Z,121.37
2018-12-22T22:06:52.054Z,118.97
2018-12-22T22:09:33.572Z,110.90
2018-12-22T22:12:15.632Z,111.97
2018-12-22T22:14:57.264Z,107.50
2018-12-22T22:19:03.572Z,115.63
2018-12-22T22:21:46.216Z,122.40
2018-12-22T22:24:28.247Z,115.33
2018-12-22T22:27:10.451Z,130.97
2018-12-22T22:29:53.062Z,129.93
2018-12-22T22:32:35.014Z,125.23
2018-12-22T22:35:16.779Z,123.30
2018-12-22T22:37:58.833Z,146.23
2018-12-22T22:40:40.361Z,202.40
2018-12-22T22:43:23.419Z,194.27
2018-12-22T22:46:05.211Z,183.20
2018-12-22T22:48:46.533Z,185.87
2018-12-22T22:51:28.375Z,153.07
2018-12-22T22:54:10.279Z,186.00
2018-12-22T22:56:52.065Z,144.80
2018-12-22T22:59:33.798Z,173.17
2018-12-22T23:02:16.810Z,153.47
2018-12-22T23:04:58.938Z,143.03
2018-12-22T23:07:40.350Z,129.67
2018-12-22T23:10:21.833Z,151.40
2018-12-22T23:13:03.552Z,159.50
2018-12-22T23:33:43.340Z,127.77
2018-12-22T23:39:31.631Z,158.10
2018-12-22T23:42:14.226Z,143.13
2018-12-22T23:44:57.424Z,123.83
2018-12-22T23:47:39.648Z,119.70
2018-12-22T23:50:22.595Z,106.70
2018-12-22T23:53:07.464Z,99.00
2018-12-22T23:55:49.716Z,85.60
2018-12-22T23:58:32.522Z,87.90
